»·PEaware :: SWA2103 KLAS-KSAN

SWA2103 :: KLAS-KSAN

FLIGHT INFORMATION

Flight Status: Arrived
Operator:
Southwest Airlines
More flights by this operator :: More flights under this callsign
Pilot: Elliott T. (30246)
Aircraft: BOEING 737-800
(B738)
More flights by this aircraft type
Origin: KLAS McCarran Intl
United States
Destination: KSAN San Diego Intl-Lindbergh
United States
More flights between these airports :: More routes between these airports
Route: +BOACH8 LVELL LUCKI1
File this flight plan on PilotEdge
Remarks:
Altitude:
(Current/Filed)
36,000ft
Speed:
(Current/Filed)
457kts
Departed: 16-Jul-20 09:10 PM
Arrived: 16-Jul-20 09:56 PM
Distance/Time
Traveled:
225nm/0:46
Distance/Time
To Go:
Arrived

Flight Plot

Page will automatically refresh every two minutes.

Flight plan parsing failed; only flown route is shown


Map Options




Map Legend


Flown Route
Filed Route
Departure Airport
Arrival Airport
Navaid (VOR, NDB)
Fix

Horizontal Profiles

Position Reports

Time Latitude Longitude Heading Altitude Ground
Speed
16-Jul-20 20:38 36.081007 -115.147654 61 2099ft 0kts
16-Jul-20 20:39 36.081007 -115.147654 61 2099ft 0kts
16-Jul-20 20:40 36.081007 -115.147654 61 2099ft 0kts
16-Jul-20 20:41 36.081007 -115.147654 61 2099ft 0kts
16-Jul-20 20:42 36.081007 -115.147654 61 2099ft 0kts
16-Jul-20 20:43 36.081007 -115.147654 61 2099ft 0kts
16-Jul-20 20:44 36.081007 -115.147654 61 2099ft 0kts
16-Jul-20 20:45 36.081007 -115.147654 61 2099ft 0kts
16-Jul-20 20:46 36.081007 -115.147654 61 2099ft 0kts
16-Jul-20 20:47 36.081007 -115.147654 61 2099ft 0kts
16-Jul-20 20:48 36.081007 -115.147654 61 2099ft 0kts
16-Jul-20 20:49 36.081007 -115.147654 61 2099ft 0kts
16-Jul-20 20:50 36.081007 -115.147654 61 2099ft 0kts
16-Jul-20 20:51 36.081007 -115.147654 61 2099ft 0kts
16-Jul-20 20:52 36.080790 -115.148086 35 2101ft 2kts
16-Jul-20 20:53 36.080353 -115.148123 335 2102ft 0kts
16-Jul-20 20:54 36.080353 -115.148123 335 2102ft 0kts
16-Jul-20 20:56 36.080573 -115.148247 335 2102ft 3kts
16-Jul-20 20:57 36.080868 -115.148775 285 2103ft 0kts
16-Jul-20 20:58 36.080985 -115.149394 274 2106ft 3kts
16-Jul-20 20:59 36.081016 -115.150912 267 2112ft 4kts
16-Jul-20 21:00 36.080968 -115.152536 278 2118ft 5kts
16-Jul-20 21:01 36.081144 -115.153426 285 2121ft 0kts
16-Jul-20 21:02 36.081144 -115.153426 285 2121ft 0kts
16-Jul-20 21:03 36.081144 -115.153426 285 2121ft 0kts
16-Jul-20 21:04 36.081144 -115.153430 285 2121ft 0kts
16-Jul-20 21:05 36.081879 -115.155120 329 2123ft 11kts
16-Jul-20 21:06 36.086448 -115.157779 342 2125ft 21kts
16-Jul-20 21:07 36.093795 -115.154109 24 2092ft 36kts
16-Jul-20 21:08 36.097272 -115.152112 14 2080ft 6kts
16-Jul-20 21:09 36.097948 -115.152440 305 2079ft 3kts
16-Jul-20 21:10 36.092606 -115.156974 204 2104ft 97kts
16-Jul-20 21:11 36.054229 -115.179707 207 3332ft 172kts
16-Jul-20 21:12 36.011543 -115.213930 227 4693ft 216kts
16-Jul-20 21:13 35.970556 -115.284987 218 6337ft 276kts
16-Jul-20 21:13 35.910267 -115.309658 185 8665ft 285kts
16-Jul-20 21:14 35.827357 -115.312153 175 10392ft 333kts
16-Jul-20 21:16 35.718763 -115.299314 175 13598ft 341kts
16-Jul-20 21:16 35.639280 -115.295770 182 15792ft 348kts
16-Jul-20 21:17 35.541257 -115.300092 182 18270ft 358kts
16-Jul-20 21:18 35.440961 -115.304088 182 20544ft 367kts
16-Jul-20 21:19 35.337928 -115.308166 182 22643ft 376kts
16-Jul-20 21:20 35.232192 -115.312339 183 24562ft 384kts
16-Jul-20 21:21 35.124383 -115.316583 183 26322ft 393kts
16-Jul-20 21:22 35.014493 -115.320897 183 27878ft 401kts
16-Jul-20 21:23 34.901437 -115.326432 183 29170ft 413kts
16-Jul-20 21:24 34.787406 -115.347067 194 30710ft 418kts
16-Jul-20 21:25 34.674064 -115.390450 197 31859ft 427kts
16-Jul-20 21:26 34.561729 -115.432914 196 33546ft 420kts
16-Jul-20 21:27 34.450939 -115.473268 196 35022ft 415kts
16-Jul-20 21:28 34.343339 -115.522288 208 35957ft 419kts
16-Jul-20 21:29 34.242639 -115.592075 207 35954ft 414kts
16-Jul-20 21:30 34.137796 -115.648299 201 35962ft 413kts
16-Jul-20 21:31 34.032298 -115.698762 200 35918ft 411kts
16-Jul-20 21:32 33.925773 -115.749086 200 35275ft 421kts
16-Jul-20 21:33 33.816246 -115.802580 201 32415ft 427kts
16-Jul-20 21:34 33.706869 -115.855089 200 29706ft 417kts
16-Jul-20 21:35 33.601207 -115.904391 200 27568ft 406kts
16-Jul-20 21:36 33.508088 -115.973735 225 25707ft 395kts
16-Jul-20 21:37 33.440693 -116.075981 231 23667ft 386kts
16-Jul-20 21:38 33.379473 -116.178938 232 21546ft 374kts
16-Jul-20 21:39 33.309244 -116.265543 209 19443ft 360kts
16-Jul-20 21:40 33.222598 -116.317529 205 17650ft 343kts
16-Jul-20 21:41 33.136071 -116.368088 205 15942ft 348kts
16-Jul-20 21:42 33.051138 -116.417699 205 14046ft 335kts
16-Jul-20 21:43 32.975000 -116.474114 219 12553ft 315kts
16-Jul-20 21:44 32.908897 -116.540550 220 10834ft 307kts
16-Jul-20 21:45 32.847516 -116.603522 221 10034ft 274kts
16-Jul-20 21:46 32.790659 -116.662007 221 8753ft 269kts
16-Jul-20 21:47 32.747883 -116.733964 240 7412ft 264kts
16-Jul-20 21:48 32.713688 -116.805027 241 6216ft 239kts
16-Jul-20 21:49 32.689152 -116.876685 250 5089ft 228kts
16-Jul-20 21:50 32.674499 -116.946621 279 4024ft 211kts
16-Jul-20 21:51 32.689532 -117.008567 286 3181ft 180kts
16-Jul-20 21:52 32.702532 -117.062202 287 2732ft 165kts
16-Jul-20 21:53 32.714684 -117.111607 282 1295ft 145kts
16-Jul-20 21:54 32.725972 -117.158245 285 484ft 147kts
16-Jul-20 21:55 32.735177 -117.196394 286 21ft 34kts
16-Jul-20 21:56 32.734895 -117.198324 197 20ft 0kts
16-Jul-20 21:57 32.734735 -117.198359 190 20ft 3kts
16-Jul-20 21:58 32.733765 -117.198206 196 20ft 0kts

Navigation Log

Ident Type
Flight plan parsing failed, navigation log unavailable